AirNav   Phillips 66 Aviation Fuel
 
 1586 users online  

7PN0 Tidmore Airport
Minersville, Pennsylvania, USA

GOING TO MINERSVILLE?


FAA INFORMATION EFFECTIVE 20 JULY 2017

Location

FAA Identifier: 7PN0
Lat/Long: 40-42-18.0000N / 076-14-11.0000W
40-42.300000N / 076-14.183333W
40.7050000 / -76.2363889
(estimated)
Elevation: 930 ft. / 283 m (estimated)
Variation: 11W (1985)
From city: 1 mile NE of MINERSVILLE, PA
Time zone: UTC -4 (UTC -5 during Standard Time)
Zip code: 17901

Airport Operations

Airport use: Private use. Permission required prior to landing
Activation date: 03/1961
Control tower: no
ARTCC: NEW YORK CENTER
FSS: WILLIAMSPORT FLIGHT SERVICE STATION
Attendance: UNATNDD
Pattern altitude: 1730 ft. MSL
Wind indicator: yes
Segmented circle: no

Airport Communications

WX AWOS-3 at ZER (6 nm W): 127.57 (570-544-2778)
WX AWOS-3 at N79 (16 nm NW): 119.175 (570-672-0389)

Nearby radio navigation aids

VOR radial/distance  VOR name  Freq  Var
HZLr206/(17.0)HAZLETON VOR109.4009W
RAVr072/18.9RAVINE VORTAC114.6011W
ETXr295/26.2EAST TEXAS VOR/DME110.2009W
MIPr143/27.3MILTON VORTAC109.2009W
SEGr108/29.9SELINSGROVE VORTAC110.4008W
LRPr013/35.2LANCASTER VOR/DME117.3009W
FJCr278/35.6ALLENTOWN VORTAC117.5010W

 
NDB name  Hdg/Dist  Freq  Var  ID
BELLGROVE052/21.732810WBZJ -... --.. .---

Airport Services

Parking: tiedowns
Bottled oxygen: NONE
Bulk oxygen: NONE

Runway Information

Runway 8/26

Dimensions: 2000 x 150 ft. / 610 x 46 m
Surface: turf, in good condition
Runway edge markings: 08/26 OUTLINED WITH YELLOW TIRES.
RUNWAY 8  RUNWAY 26
Traffic pattern: leftleft
Runway end identifier lights: nono
Obstructions: 33 ft. tree, 492 ft. from runway18 ft. trees, 271 ft. from runway

Airport Ownership and Management from official FAA records

Ownership: Privately-owned
Owner: ARGIE D. TIDMORE
PO BOX 86
POTTSVILLE, PA 17901
Phone 570-622-1360
EXT. 26
Manager: ARGIE D. TIDMORE
PO BOX 86
POTTSVILLE, PA 17901
Phone 570-622-1360
EXT. 26

Airport Operational Statistics

Aircraft based on the field: 1
Single engine airplanes: 1
    

Instrument Procedures

There are no published instrument procedures at 7PN0.

Some nearby airports with instrument procedures:

KZER - Schuylkill County (Joe Zerbey) Airport (6 nm W)
N79 - Northumberland County Airport (16 nm NW)
74N - Bendigo Airport (17 nm SW)
N13 - Bloomsburg Municipal Airport (20 nm NW)
KHZL - Hazleton Regional Airport (20 nm NE)
 
Loc | Ops | Rwys | IFR | FBO | Links
Com | Nav | Svcs | Stats | Notes


 
Area around 7PN0 (Tidmore Airport)
 
Road maps at: MapQuest Bing Google
 
Aerial photo
No photo
 
Sectional chart

 
Airport distance calculator
Flying to Tidmore Airport? Find the distance to fly.

From to 7PN0

Sunrise and sunset
Times for 25-Jul-2017
 Local
(UTC-4)
 Zulu
(UTC)
Morning civil twilight05:2509:25
Sunrise05:5609:56
Sunset20:2700:27
Evening civil twilight20:5800:58

Current date and time
Zulu (UTC)  25-Jul-2017 17:16:20
Local (UTC-4)  25-Jul-2017 13:16:20
 
METAR
KHZL 
20nm NE 
251655Z AUTO 35005KT 10SM 21/15 A3016 RMK AO2
KMUI 
23nm SW 
251658Z 32008KT 10SM SCT032 BKN055 23/15 A3011 RMK AO2A SLP197 T02280153
KRDG 
24nm SE 
251654Z 35004KT 10SM OVC050 24/17 A3009 RMK AO2 SLP191 T02390172
KSEG 
29nm W 
251653Z AUTO 33005KT 10SM SCT042 OVC050 22/16 A3012 RMK AO2 SLP198 T02220161
KXLL 
35nm E 
251655Z AUTO 02003KT 10SM OVC060 23/17 A3011 RMK AO2
KLNS 
35nm S 
251653Z 33008KT 10SM FEW039 OVC050 23/17 A3011 RMK AO2 SLP193 T02330167
KABE 
36nm E 
251651Z 05006KT 10SM FEW039 OVC050 23/17 A3009 RMK AO2 SLP188 T02330172
KMDT 
39nm SW 
251656Z 34008KT 10SM OVC040 23/14 A3011 RMK AO2 SLP195 T02280144
TAF
KMUI 
23nm SW 
251100Z 2511/2617 32006KT 9999 FEW015 BKN025 QNH3003INS BECMG 2512/2513 32012KT 9999 FEW015 BKN025 QNH3008INS BECMG 2523/2524 36006KT 9999 SCT035 QNH3017INS BECMG 2608/2609 36006KT 9999 BKN006 QNH3023INS BECMG 2615/2616 06006KT 9999 OVC015 QNH3024INS TX25/2521Z TN15/2609Z
KRDG 
24nm SE 
251316Z 2513/2612 35005KT P6SM BKN025 OVC045 FM251500 32008KT P6SM BKN060 FM260300 VRB03KT P6SM OVC040
NOTAMs
Click for the latest NOTAMs
NOTAMs are issued by the DoD/FAA and will open in a separate window not controlled by AirNav.

 

 
 

Would you like to see your business listed on this page?

 If your business provides an interesting product or service to pilots, flight crews, aircraft, or users of the Tidmore Airport, you should consider listing it here.  To start the listing process, click on the button below
 
Add a business
 

Other Pages about Tidmore Airport

Update a link
 
Copyright © AirNav, LLC. All rights reserved. Privacy Policy  Contact